Time;durP1;ratioP1;P1;durP2;ratioP2;P2;SDS_P1;SDS_P2;PMS_P1;PMS_P2;Temp;Humidity;BMP_temperature;BMP_pressure;BME280_temperature;BME280_humidity;BME280_pressure;Samples;Min_cycle;Max_cycle;Signal;HPM_P1;HPM_P2
2021/12/08 00:01:26;;;;;;;37.37;18.90;;;;;;;;;;10372515;28;20297;-74
2021/12/08 00:06:28;;;;;;;31.30;17.53;;;;;;;;;;10349089;28;20262;-75
2021/12/08 00:16:49;;;;;;;35.83;18.40;;;;;;;;;;10383470;28;20219;-75
2021/12/08 00:21:50;;;;;;;24.83;13.10;;;;;;;;;;10369199;28;21000;-75
2021/12/08 00:26:52;;;;;;;30.50;15.60;;;;;;;;;;10356529;28;20199;-75
2021/12/08 00:31:54;;;;;;;33.47;15.63;;;;;;;;;;10357224;28;20798;-74
2021/12/08 00:36:58;;;;;;;29.17;15.48;;;;;;;;;;10363014;28;20203;-74
2021/12/08 00:41:59;;;;;;;27.97;14.53;;;;;;;;;;10382969;28;20215;-75
2021/12/08 00:47:00;;;;;;;27.60;14.87;;;;;;;;;;10356832;28;20227;-75
2021/12/08 00:52:01;;;;;;;22.58;13.10;;;;;;;;;;10363476;28;20188;-74
2021/12/08 00:57:03;;;;;;;25.47;14.63;;;;;;;;;;10364132;28;20199;-74
2021/12/08 01:02:05;;;;;;;25.47;14.73;;;;;;;;;;10383093;28;20231;-75
2021/12/08 01:07:06;;;;;;;27.80;15.57;;;;;;;;;;10382803;28;20714;-75
2021/12/08 01:12:07;;;;;;;26.63;15.63;;;;;;;;;;10381226;28;20187;-74
2021/12/08 01:17:09;;;;;;;26.77;15.13;;;;;;;;;;10359877;28;20215;-75
2021/12/08 01:22:10;;;;;;;23.98;12.98;;;;;;;;;;10381236;28;20200;-75
2021/12/08 01:27:11;;;;;;;24.02;13.93;;;;;;;;;;10371883;28;24296;-75
2021/12/08 01:32:12;;;;;;;17.37;8.40;;;;;;;;;;10351978;28;20289;-74
2021/12/08 01:37:13;;;;;;;14.63;9.33;;;;;;;;;;10364652;28;20294;-74
2021/12/08 01:42:18;;;;;;;22.37;13.07;;;;;;;;;;10374622;28;20698;-75
2021/12/08 01:47:19;;;;;;;18.75;11.63;;;;;;;;;;10380785;28;20374;-74
2021/12/08 01:52:20;;;;;;;17.80;11.17;;;;;;;;;;10346065;28;20678;-74
2021/12/08 01:57:21;;;;;;;22.50;11.73;;;;;;;;;;10357313;28;20211;-75
2021/12/08 02:02:22;;;;;;;23.43;13.23;;;;;;;;;;10346664;28;20215;-75
2021/12/08 02:07:24;;;;;;;15.15;7.70;;;;;;;;;;10355309;28;20218;-74
2021/12/08 02:12:25;;;;;;;24.15;12.38;;;;;;;;;;10354213;28;20571;-75
2021/12/08 02:17:26;;;;;;;16.65;8.65;;;;;;;;;;10383135;28;20278;-75
2021/12/08 02:22:28;;;;;;;22.70;12.52;;;;;;;;;;10372796;28;20956;-74
2021/12/08 02:27:31;;;;;;;20.77;12.63;;;;;;;;;;10379523;28;20703;-74
2021/12/08 02:46:42;;;;;;;26.10;14.40;;;;;;;;;;10376366;28;20275;-74
2021/12/08 02:48:33;;;;;;;19.70;11.90;;;;;;;;;;10391663;28;20219;-74
2021/12/08 02:53:34;;;;;;;30.20;15.77;;;;;;;;;;10381217;28;20223;-74
2021/12/08 02:58:35;;;;;;;27.00;14.52;;;;;;;;;;10358972;28;20926;-74
2021/12/08 03:03:36;;;;;;;34.43;15.60;;;;;;;;;;10353140;28;20219;-75
2021/12/08 03:08:37;;;;;;;33.00;14.43;;;;;;;;;;10364947;28;20216;-74
2021/12/08 03:13:42;;;;;;;26.75;14.00;;;;;;;;;;10384422;28;20279;-74
2021/12/08 03:18:43;;;;;;;31.27;15.40;;;;;;;;;;10368298;28;20251;-73
2021/12/08 03:24:04;;;;;;;31.67;16.07;;;;;;;;;;10384164;28;20203;-73
2021/12/08 03:29:18;;;;;;;25.83;11.90;;;;;;;;;;10386106;28;20199;-75
2021/12/08 03:34:23;;;;;;;31.93;16.03;;;;;;;;;;10377469;28;20780;-75
2021/12/08 03:39:24;;;;;;;37.60;15.83;;;;;;;;;;10384555;28;20184;-74
2021/12/08 03:44:25;;;;;;;35.90;16.88;;;;;;;;;;10358960;28;20269;-74
2021/12/08 03:49:26;;;;;;;35.20;16.30;;;;;;;;;;10356818;28;20294;-75
2021/12/08 03:54:27;;;;;;;31.23;16.10;;;;;;;;;;10386770;28;20196;-73
2021/12/08 03:59:28;;;;;;;32.00;16.70;;;;;;;;;;10349758;28;20939;-74
2021/12/08 04:04:30;;;;;;;34.53;17.30;;;;;;;;;;10363931;28;20211;-74
2021/12/08 04:09:36;;;;;;;21.08;12.00;;;;;;;;;;10377161;28;20183;-75
2021/12/08 04:14:40;;;;;;;33.23;15.97;;;;;;;;;;10362459;28;20203;-73
2021/12/08 04:19:42;;;;;;;33.00;16.40;;;;;;;;;;10378910;28;20207;-74
2021/12/08 04:24:44;;;;;;;37.90;17.67;;;;;;;;;;10353181;28;20222;-74
2021/12/08 04:29:46;;;;;;;21.17;11.52;;;;;;;;;;10359579;28;20724;-74
2021/12/08 04:34:49;;;;;;;32.73;14.73;;;;;;;;;;10376797;28;20223;-75
2021/12/08 04:40:05;;;;;;;33.27;16.53;;;;;;;;;;10378317;28;20233;-74
2021/12/08 04:45:13;;;;;;;24.25;11.88;;;;;;;;;;10376561;28;20888;-75
2021/12/08 05:11:24;;;;;;;30.13;12.38;;;;;;;;;;10376355;28;20245;-75
2021/12/08 05:16:26;;;;;;;20.50;8.93;;;;;;;;;;10352022;28;20216;-74
2021/12/08 05:21:47;;;;;;;21.50;10.20;;;;;;;;;;10360961;28;21015;-75
2021/12/08 05:26:54;;;;;;;26.75;12.57;;;;;;;;;;10367274;28;20198;-75
2021/12/08 05:31:58;;;;;;;29.42;14.27;;;;;;;;;;10375091;28;20924;-74
2021/12/08 05:36:59;;;;;;;21.83;10.57;;;;;;;;;;10351930;28;20203;-74
2021/12/08 05:42:03;;;;;;;17.63;8.32;;;;;;;;;;10375853;28;20235;-75
2021/12/08 05:47:06;;;;;;;30.30;14.90;;;;;;;;;;10353088;28;20641;-74
2021/12/08 05:52:07;;;;;;;29.30;13.63;;;;;;;;;;10374002;28;20214;-75
2021/12/08 05:57:11;;;;;;;21.58;11.75;;;;;;;;;;10377330;28;20935;-74
2021/12/08 06:02:12;;;;;;;33.57;15.53;;;;;;;;;;10374787;28;20226;-74
2021/12/08 06:07:14;;;;;;;26.83;13.80;;;;;;;;;;10344903;28;20573;-73
2021/12/08 06:12:15;;;;;;;23.15;12.32;;;;;;;;;;10363618;28;20865;-75
2021/12/08 06:17:18;;;;;;;24.85;13.32;;;;;;;;;;10340130;28;20259;-73
2021/12/08 06:22:21;;;;;;;30.95;14.48;;;;;;;;;;10359830;28;20234;-75
2021/12/08 06:27:22;;;;;;;34.30;15.80;;;;;;;;;;10370207;28;20206;-74
2021/12/08 06:32:23;;;;;;;31.90;15.77;;;;;;;;;;10374419;28;20242;-73
2021/12/08 06:37:26;;;;;;;35.40;16.77;;;;;;;;;;10378998;28;20737;-72
2021/12/08 06:42:29;;;;;;;35.47;16.10;;;;;;;;;;10347081;28;20195;-74
2021/12/08 06:47:31;;;;;;;24.07;12.27;;;;;;;;;;10346941;28;20223;-75
2021/12/08 06:52:38;;;;;;;41.03;17.20;;;;;;;;;;10378393;28;20253;-74
2021/12/08 06:57:42;;;;;;;38.72;16.00;;;;;;;;;;10367993;28;21456;-73
2021/12/08 07:07:44;;;;;;;38.20;18.37;;;;;;;;;;10385600;28;20218;-76
2021/12/08 07:12:47;;;;;;;41.97;20.30;;;;;;;;;;10348604;28;20183;-76
2021/12/08 07:17:50;;;;;;;38.83;17.10;;;;;;;;;;10378609;28;20215;-76
2021/12/08 07:22:53;;;;;;;33.30;13.90;;;;;;;;;;10369966;28;20215;-75
2021/12/08 07:27:54;;;;;;;34.67;15.60;;;;;;;;;;10377995;28;20298;-78
2021/12/08 07:32:55;;;;;;;38.50;16.75;;;;;;;;;;10355998;28;20755;-76
2021/12/08 07:37:57;;;;;;;36.90;17.33;;;;;;;;;;10342385;28;20192;-75
2021/12/08 07:43:00;;;;;;;47.77;23.03;;;;;;;;;;10379140;28;20207;-76
2021/12/08 07:48:04;;;;;;;44.43;18.43;;;;;;;;;;10342331;28;20208;-75
2021/12/08 07:53:07;;;;;;;45.83;20.57;;;;;;;;;;10356696;28;20282;-76
2021/12/08 07:58:09;;;;;;;48.97;22.40;;;;;;;;;;10366428;28;20200;-77
2021/12/08 08:03:12;;;;;;;54.87;23.30;;;;;;;;;;10348491;28;20857;-75
2021/12/08 08:08:14;;;;;;;44.87;19.20;;;;;;;;;;10345118;28;20283;-75
2021/12/08 08:13:17;;;;;;;48.17;21.17;;;;;;;;;;10388152;28;20180;-77
2021/12/08 08:18:22;;;;;;;42.17;17.53;;;;;;;;;;10395556;28;20229;-78
2021/12/08 08:23:25;;;;;;;52.93;23.70;;;;;;;;;;10379751;28;20215;-79
2021/12/08 08:28:26;;;;;;;50.17;20.67;;;;;;;;;;10387017;28;20191;-78
2021/12/08 08:33:28;;;;;;;42.77;20.73;;;;;;;;;;10395523;28;20766;-78
2021/12/08 08:38:34;;;;;;;34.83;16.33;;;;;;;;;;10373198;28;20253;-79
2021/12/08 08:43:35;;;;;;;41.97;19.25;;;;;;;;;;10386955;28;20322;-78
2021/12/08 08:48:41;;;;;;;30.65;14.63;;;;;;;;;;10353698;28;20316;-76
2021/12/08 08:53:44;;;;;;;27.00;13.50;;;;;;;;;;10342806;28;20209;-77
2021/12/08 08:58:47;;;;;;;32.05;16.38;;;;;;;;;;10364149;28;20211;-77
2021/12/08 09:03:51;;;;;;;30.45;15.55;;;;;;;;;;10371130;28;20321;-75
2021/12/08 09:08:55;;;;;;;30.23;16.52;;;;;;;;;;10373322;28;20199;-76
2021/12/08 09:14:09;;;;;;;31.85;15.75;;;;;;;;;;10348065;28;20630;-75
2021/12/08 09:19:13;;;;;;;32.60;15.43;;;;;;;;;;10352700;28;20215;-75
2021/12/08 09:24:17;;;;;;;24.45;12.20;;;;;;;;;;10354966;28;20773;-75
2021/12/08 09:29:21;;;;;;;36.15;16.98;;;;;;;;;;10341605;28;20200;-74
2021/12/08 09:34:25;;;;;;;27.02;14.38;;;;;;;;;;10379440;28;20218;-74
2021/12/08 09:39:28;;;;;;;34.17;15.77;;;;;;;;;;10363205;28;20261;-74
2021/12/08 09:44:35;;;;;;;44.38;16.90;;;;;;;;;;10358974;28;20207;-75
2021/12/08 09:49:36;;;;;;;28.58;16.17;;;;;;;;;;10362298;28;20241;-73
2021/12/08 09:54:38;;;;;;;30.05;15.90;;;;;;;;;;10349648;28;20176;-74
2021/12/08 09:59:47;;;;;;;36.35;17.08;;;;;;;;;;10372774;28;20192;-75
2021/12/08 10:04:48;;;;;;;32.30;17.15;;;;;;;;;;10350879;28;20244;-73
2021/12/08 10:09:49;;;;;;;32.33;17.95;;;;;;;;;;10370659;28;21444;-75
2021/12/08 10:14:51;;;;;;;35.33;18.60;;;;;;;;;;10371728;28;20227;-74
2021/12/08 10:20:10;;;;;;;32.75;15.63;;;;;;;;;;10377629;28;20226;-74
2021/12/08 10:25:16;;;;;;;35.30;17.98;;;;;;;;;;10336131;28;20295;-75
2021/12/08 10:30:22;;;;;;;40.83;19.45;;;;;;;;;;10367058;28;20178;-73
2021/12/08 10:35:45;;;;;;;34.27;16.90;;;;;;;;;;10336871;23;20647;-71
2021/12/08 10:41:01;;;;;;;38.38;18.77;;;;;;;;;;10321443;28;20184;-72
2021/12/08 10:46:05;;;;;;;30.63;15.82;;;;;;;;;;10327832;28;20496;-71
2021/12/08 10:56:44;;;;;;;26.02;14.23;;;;;;;;;;10325916;28;20196;-72
2021/12/08 11:01:48;;;;;;;41.73;19.47;;;;;;;;;;10331110;28;20220;-72
2021/12/08 11:06:52;;;;;;;47.88;22.45;;;;;;;;;;10335502;28;20216;-72
2021/12/08 11:12:03;;;;;;;34.88;18.90;;;;;;;;;;10331882;28;20820;-72
2021/12/08 11:17:04;;;;;;;34.17;17.67;;;;;;;;;;10336714;28;20358;-72
2021/12/08 11:22:09;;;;;;;32.80;16.88;;;;;;;;;;10374377;28;20207;-72
2021/12/08 11:27:11;;;;;;;31.42;17.88;;;;;;;;;;10373512;28;20210;-72
2021/12/08 11:32:15;;;;;;;31.17;15.10;;;;;;;;;;10377956;28;20714;-71
2021/12/08 11:37:18;;;;;;;33.88;18.05;;;;;;;;;;10375531;28;21431;-70
2021/12/08 11:42:21;;;;;;;30.88;16.45;;;;;;;;;;10370769;28;20220;-73
2021/12/08 11:47:25;;;;;;;31.33;17.63;;;;;;;;;;10371960;28;20223;-71
2021/12/08 11:52:29;;;;;;;35.00;16.25;;;;;;;;;;10384269;28;20672;-72
2021/12/08 11:57:39;;;;;;;31.73;17.92;;;;;;;;;;10368592;28;20207;-71
2021/12/08 12:02:51;;;;;;;31.45;16.63;;;;;;;;;;10374662;28;20640;-71
2021/12/08 12:07:53;;;;;;;31.10;14.98;;;;;;;;;;10373430;28;20183;-73
2021/12/08 12:12:54;;;;;;;24.08;13.18;;;;;;;;;;10372026;28;20584;-71
2021/12/08 12:17:55;;;;;;;30.45;17.13;;;;;;;;;;10355177;28;20729;-71
2021/12/08 12:23:02;;;;;;;29.90;16.02;;;;;;;;;;10371606;28;20204;-71
2021/12/08 12:28:20;;;;;;;31.65;16.15;;;;;;;;;;10370300;28;20981;-72
2021/12/08 12:33:23;;;;;;;27.70;15.32;;;;;;;;;;10388768;28;20314;-72
2021/12/08 12:38:34;;;;;;;30.50;16.98;;;;;;;;;;10368572;28;20177;-72
2021/12/08 12:43:39;;;;;;;29.70;15.02;;;;;;;;;;10365402;28;20313;-72
2021/12/08 12:48:40;;;;;;;28.42;15.45;;;;;;;;;;10370611;28;20265;-71
2021/12/08 12:53:45;;;;;;;29.55;15.68;;;;;;;;;;10370668;28;20889;-71
2021/12/08 12:58:53;;;;;;;20.40;10.65;;;;;;;;;;10372288;28;20233;-72
2021/12/08 13:03:55;;;;;;;25.63;14.38;;;;;;;;;;10369868;28;20240;-72
2021/12/08 13:08:56;;;;;;;24.73;15.50;;;;;;;;;;10369358;28;20179;-72
2021/12/08 13:13:57;;;;;;;29.23;14.07;;;;;;;;;;10372357;28;20192;-72
2021/12/08 13:19:00;;;;;;;24.92;15.07;;;;;;;;;;10369862;28;20219;-72
2021/12/08 13:24:01;;;;;;;30.70;15.43;;;;;;;;;;10384177;28;20211;-71
2021/12/08 13:29:23;;;;;;;23.98;12.88;;;;;;;;;;10368303;28;20192;-72
2021/12/08 13:34:24;;;;;;;28.30;13.98;;;;;;;;;;10374483;28;20251;-71
2021/12/08 13:39:26;;;;;;;24.20;13.95;;;;;;;;;;10369343;28;20191;-71
2021/12/08 13:44:33;;;;;;;17.27;10.77;;;;;;;;;;10366559;28;20212;-71
2021/12/08 13:49:57;;;;;;;27.02;14.75;;;;;;;;;;10368412;28;20290;-72
2021/12/08 13:55:16;;;;;;;25.27;12.63;;;;;;;;;;10365242;28;20226;-71
2021/12/08 14:00:17;;;;;;;31.33;15.98;;;;;;;;;;10367433;28;20179;-72
2021/12/08 14:05:20;;;;;;;27.67;15.57;;;;;;;;;;10365193;28;20809;-73
2021/12/08 14:10:27;;;;;;;29.40;15.50;;;;;;;;;;10381150;28;20218;-71
2021/12/08 14:15:31;;;;;;;28.83;15.68;;;;;;;;;;10366312;28;20184;-72
2021/12/08 14:20:35;;;;;;;29.88;14.82;;;;;;;;;;10377399;28;20713;-71
2021/12/08 14:25:42;;;;;;;28.33;15.05;;;;;;;;;;10383429;28;20575;-72
2021/12/08 14:30:46;;;;;;;27.27;14.73;;;;;;;;;;10370347;28;20211;-72
2021/12/08 14:35:54;;;;;;;24.73;14.68;;;;;;;;;;10372492;28;20204;-72
2021/12/08 14:40:56;;;;;;;31.50;14.88;;;;;;;;;;10376076;28;20184;-72
2021/12/08 14:46:08;;;;;;;22.67;13.85;;;;;;;;;;10388712;28;20228;-72
2021/12/08 14:51:10;;;;;;;26.65;14.23;;;;;;;;;;10376905;28;20280;-72
2021/12/08 14:56:12;;;;;;;24.90;13.43;;;;;;;;;;10383431;28;20199;-71
2021/12/08 15:01:14;;;;;;;26.73;13.95;;;;;;;;;;10372952;28;20216;-72
2021/12/08 15:06:16;;;;;;;31.10;14.15;;;;;;;;;;10387195;28;20207;-72
2021/12/08 15:11:22;;;;;;;28.10;13.57;;;;;;;;;;10373084;28;20187;-73
2021/12/08 15:16:23;;;;;;;25.90;14.35;;;;;;;;;;10373086;28;20220;-72
2021/12/08 15:21:34;;;;;;;25.48;12.13;;;;;;;;;;10372247;28;20179;-72
2021/12/08 15:26:36;;;;;;;25.70;14.90;;;;;;;;;;10374174;28;20257;-73
2021/12/08 15:31:38;;;;;;;26.15;14.52;;;;;;;;;;10373354;28;20228;-73
2021/12/08 15:36:39;;;;;;;32.53;17.40;;;;;;;;;;10373432;28;20275;-73
2021/12/08 15:41:46;;;;;;;26.90;15.07;;;;;;;;;;10409665;22;20284;-73
2021/12/08 15:46:49;;;;;;;26.08;15.63;;;;;;;;;;10362364;28;20228;-72
2021/12/08 15:51:51;;;;;;;29.58;15.43;;;;;;;;;;10329648;28;20243;-73
2021/12/08 15:56:59;;;;;;;31.33;16.38;;;;;;;;;;10390269;23;20314;-73
2021/12/08 16:02:01;;;;;;;41.40;26.08;;;;;;;;;;10375759;23;20251;-73
2021/12/08 16:07:04;;;;;;;38.03;20.85;;;;;;;;;;10399060;23;20215;-76
2021/12/08 16:12:10;;;;;;;32.75;18.88;;;;;;;;;;10414568;28;20183;-75
2021/12/08 16:17:19;;;;;;;34.95;17.98;;;;;;;;;;10396279;28;20696;-73
2021/12/08 16:22:22;;;;;;;28.63;16.08;;;;;;;;;;10370176;28;20228;-71
2021/12/08 16:27:27;;;;;;;42.45;19.75;;;;;;;;;;10371395;28;20925;-70
2021/12/08 16:32:29;;;;;;;32.03;18.10;;;;;;;;;;10389860;28;20265;-71
2021/12/08 16:37:30;;;;;;;30.92;15.05;;;;;;;;;;10428932;28;20249;-72
2021/12/08 16:47:55;;;;;;;31.67;16.10;;;;;;;;;;10413690;28;20230;-72
2021/12/08 16:52:58;;;;;;;39.05;21.05;;;;;;;;;;10412270;28;20195;-71
2021/12/08 16:58:01;;;;;;;35.55;18.63;;;;;;;;;;10428137;28;20547;-71
2021/12/08 17:03:05;;;;;;;35.17;19.85;;;;;;;;;;10414961;28;20230;-72
2021/12/08 17:08:06;;;;;;;35.90;19.17;;;;;;;;;;10415838;28;20241;-72
2021/12/08 17:13:07;;;;;;;41.03;18.50;;;;;;;;;;10409539;28;20182;-72
2021/12/08 17:18:09;;;;;;;47.28;27.80;;;;;;;;;;10412502;28;20206;-73
2021/12/08 17:23:11;;;;;;;65.10;33.53;;;;;;;;;;10414203;28;20211;-72
2021/12/08 17:28:13;;;;;;;48.00;27.30;;;;;;;;;;10412637;28;20643;-73
2021/12/08 17:33:14;;;;;;;32.10;17.40;;;;;;;;;;10412745;28;20222;-73
2021/12/08 17:38:15;;;;;;;35.60;18.52;;;;;;;;;;10411877;28;20206;-73
2021/12/08 17:43:16;;;;;;;34.42;17.15;;;;;;;;;;10414156;28;20205;-72
2021/12/08 17:48:17;;;;;;;32.15;16.83;;;;;;;;;;10410282;28;20741;-73
2021/12/08 17:53:18;;;;;;;47.33;24.70;;;;;;;;;;10414688;28;20712;-73
2021/12/08 17:58:19;;;;;;;55.78;31.38;;;;;;;;;;10413825;28;20251;-73
2021/12/08 18:03:22;;;;;;;39.72;19.40;;;;;;;;;;10410182;28;22435;-73
2021/12/08 18:08:23;;;;;;;44.47;20.25;;;;;;;;;;10412152;28;20226;-73
2021/12/08 18:13:25;;;;;;;65.60;29.17;;;;;;;;;;10415908;28;20311;-72
2021/12/08 18:18:26;;;;;;;42.42;19.98;;;;;;;;;;10420367;28;20570;-73
2021/12/08 18:23:27;;;;;;;35.83;19.88;;;;;;;;;;10417033;28;20210;-73
2021/12/08 18:28:28;;;;;;;36.20;19.13;;;;;;;;;;10420958;28;20695;-73
2021/12/08 18:33:30;;;;;;;36.17;18.88;;;;;;;;;;10417321;28;20210;-73
2021/12/08 18:38:36;;;;;;;33.90;17.98;;;;;;;;;;10421384;28;20198;-73
2021/12/08 18:43:38;;;;;;;34.90;17.42;;;;;;;;;;10420054;28;20268;-73
2021/12/08 18:48:40;;;;;;;25.90;16.00;;;;;;;;;;10418949;28;20265;-72
2021/12/08 18:53:42;;;;;;;26.98;15.02;;;;;;;;;;10419126;28;20796;-73
2021/12/08 18:58:43;;;;;;;39.20;18.77;;;;;;;;;;10417602;28;20198;-73
2021/12/08 19:03:45;;;;;;;28.45;15.15;;;;;;;;;;10420110;28;20317;-72
2021/12/08 19:08:48;;;;;;;34.78;17.10;;;;;;;;;;10413767;28;20770;-73
2021/12/08 19:13:49;;;;;;;34.13;17.33;;;;;;;;;;10416071;28;20289;-73
2021/12/08 19:18:51;;;;;;;32.40;17.08;;;;;;;;;;10413538;28;20214;-72
2021/12/08 19:23:52;;;;;;;38.25;17.55;;;;;;;;;;10414372;28;20256;-73
2021/12/08 19:28:53;;;;;;;37.47;17.35;;;;;;;;;;10417404;28;20179;-72
2021/12/08 19:33:57;;;;;;;32.25;14.40;;;;;;;;;;10416626;28;20234;-73
2021/12/08 19:38:58;;;;;;;37.17;18.58;;;;;;;;;;10418507;28;21176;-72
2021/12/08 19:43:59;;;;;;;39.17;18.87;;;;;;;;;;10416555;28;20235;-72
2021/12/08 19:49:00;;;;;;;40.58;19.27;;;;;;;;;;10415290;28;20210;-71
2021/12/08 19:54:01;;;;;;;43.00;20.30;;;;;;;;;;10417250;28;20246;-72
2021/12/08 19:59:02;;;;;;;43.33;19.50;;;;;;;;;;10415330;28;20197;-72
2021/12/08 20:04:03;;;;;;;39.05;19.42;;;;;;;;;;10415032;28;20219;-73
2021/12/08 20:09:06;;;;;;;39.53;19.17;;;;;;;;;;10417002;28;20246;-73
2021/12/08 20:14:07;;;;;;;39.53;20.07;;;;;;;;;;10410591;28;20190;-73
2021/12/08 20:19:12;;;;;;;46.90;19.88;;;;;;;;;;10407537;28;20226;-72
2021/12/08 20:24:13;;;;;;;40.03;18.40;;;;;;;;;;10409445;28;20199;-72
2021/12/08 20:29:14;;;;;;;42.05;19.90;;;;;;;;;;10408002;28;20183;-73
2021/12/08 20:34:15;;;;;;;43.38;20.15;;;;;;;;;;10410012;28;20277;-72
2021/12/08 20:39:16;;;;;;;45.97;20.73;;;;;;;;;;10411160;28;20741;-72
2021/12/08 20:44:20;;;;;;;44.77;20.53;;;;;;;;;;10407619;28;20203;-73
2021/12/08 20:49:23;;;;;;;51.38;22.33;;;;;;;;;;10409782;28;20218;-73
2021/12/08 20:54:24;;;;;;;47.70;21.20;;;;;;;;;;10411299;28;20186;-73
2021/12/08 20:59:26;;;;;;;48.35;21.27;;;;;;;;;;10410611;28;20179;-72
2021/12/08 21:04:29;;;;;;;44.63;20.27;;;;;;;;;;10411503;28;20598;-71
2021/12/08 21:09:31;;;;;;;48.10;21.27;;;;;;;;;;10412820;28;21147;-71
2021/12/08 21:14:32;;;;;;;47.50;20.47;;;;;;;;;;10410618;28;20179;-71
2021/12/08 21:19:34;;;;;;;45.75;20.85;;;;;;;;;;10409359;28;20230;-71
2021/12/08 21:24:38;;;;;;;42.03;19.80;;;;;;;;;;10411894;28;20743;-71
2021/12/08 21:29:39;;;;;;;43.40;20.35;;;;;;;;;;10409190;28;20187;-72
2021/12/08 21:34:40;;;;;;;45.05;21.08;;;;;;;;;;10409894;28;20253;-72
2021/12/08 21:39:41;;;;;;;42.42;19.88;;;;;;;;;;10408307;28;20298;-72
2021/12/08 21:44:43;;;;;;;40.10;19.58;;;;;;;;;;10406453;28;20264;-73
2021/12/08 21:49:44;;;;;;;41.03;20.45;;;;;;;;;;10410029;28;20286;-73
2021/12/08 21:54:45;;;;;;;47.08;21.33;;;;;;;;;;10411172;28;20843;-73
2021/12/08 21:59:46;;;;;;;41.90;20.42;;;;;;;;;;10412728;28;20193;-73
2021/12/08 22:04:47;;;;;;;42.53;20.27;;;;;;;;;;10413430;28;20226;-71
2021/12/08 22:09:48;;;;;;;44.08;19.75;;;;;;;;;;10408399;28;20618;-71
2021/12/08 22:14:49;;;;;;;41.33;20.20;;;;;;;;;;10411199;28;20194;-71
2021/12/08 22:19:51;;;;;;;43.00;20.50;;;;;;;;;;10409458;28;20226;-72
2021/12/08 22:24:53;;;;;;;46.20;20.15;;;;;;;;;;10411705;28;20233;-72
2021/12/08 22:29:54;;;;;;;44.60;19.67;;;;;;;;;;10410539;28;20258;-73
2021/12/08 22:34:55;;;;;;;47.35;20.90;;;;;;;;;;10406734;28;20361;-72
2021/12/08 22:39:56;;;;;;;41.38;19.60;;;;;;;;;;10411340;28;20302;-73
2021/12/08 22:44:57;;;;;;;48.75;21.05;;;;;;;;;;10411060;28;20951;-73
2021/12/08 22:49:59;;;;;;;50.33;21.13;;;;;;;;;;10405439;28;20301;-72
2021/12/08 22:55:01;;;;;;;44.90;20.65;;;;;;;;;;10407566;28;20662;-73
2021/12/08 23:00:05;;;;;;;48.05;21.38;;;;;;;;;;10414729;28;20183;-73
2021/12/08 23:05:06;;;;;;;58.30;22.45;;;;;;;;;;10419167;28;20216;-73
2021/12/08 23:10:07;;;;;;;51.97;21.63;;;;;;;;;;10414994;28;20285;-73
2021/12/08 23:15:11;;;;;;;53.30;23.30;;;;;;;;;;10418493;28;20194;-72
2021/12/08 23:20:14;;;;;;;55.80;23.03;;;;;;;;;;10415512;28;20214;-73
2021/12/08 23:25:15;;;;;;;50.40;21.97;;;;;;;;;;10415010;28;20243;-73
2021/12/08 23:30:16;;;;;;;48.00;20.85;;;;;;;;;;10416623;28;20644;-73
2021/12/08 23:40:21;;;;;;;63.17;23.70;;;;;;;;;;10419545;28;20211;-73
2021/12/08 23:45:23;;;;;;;50.00;22.17;;;;;;;;;;10416294;28;20583;-74
2021/12/08 23:50:24;;;;;;;48.22;22.33;;;;;;;;;;10412701;28;20644;-73
2021/12/08 23:55:25;;;;;;;55.97;22.15;;;;;;;;;;10416809;28;20190;-74
